GQPP

Nouadhibou International Airport

Nouadhibou, Mauritania
METAR GQPP 191100Z 36008KT 340V040 8000 NSC 22/05 Q1020 NOSIG
Observed Flight Rules
Dec-19 @ 11:00 UTC (37 minutes ago) Marginal Visual Flight Rules
Wind Visibility Clouds
360° at 8 knots 7,998 meters
  • Clear skies
Temperatures Readings
Current 22°C / 72°F
Dewpoint 5°C / 41°F
Humidity 33%
Altimeter 30.12" Hg
Pressure 1020 hPa
Elevation 3
METAR GQPP 191100Z 36008KT 340V040 8000 NSC 22/05 Q1020 NOSIG
Observed Flight Rules
Dec-19 @ 11:00 UTC
(37 minutes ago)
MVFR
Wind Visibility
360° at 8 knots 7,998 meters
Clouds
  • Clear skies
Temperature Dewpoint
22°C / 72°F 5°C / 41°F
Humidity Altimeter Pressure
33% 30.12" Hg 1020 hPa